Stuart, FL

3:13 AM EST on December 25, 2014 (GMT -0500)
Witham | Change Station
CLOSE
Current Station
Airport
Location: Stuart,
Elevation: 20 ft
Nearby Weather Stations

Elev 20 ft 27.18 °N, 80.22 °W | Updated 18 minutes ago

Mostly Cloudy
Mostly Cloudy
63 °F
Feels Like 63 °F
N
0
Wind Variable Wind from North

Today
High -- | Low -- °F
--% Chance of Precip.
Yesterday
High -- | Low -- °F
Precip. -- in
7:08 AM 5:34 PM
Waxing Crescent, 14% visible
Pressure 30.02 in
Visibility 10.0 miles
Clouds Scattered Clouds 4100 ft
Scattered Clouds 10000 ft
Mostly Cloudy 12000 ft
Dew Point 63 °F
Humidity 100%
Rainfall 0.99 in
Snow Depth Not available.
UV 0 out of 12
Pollen 3.90 out of 12
Air Quality Not available.
Flu Activity Not available.
METAR KSUA 250755Z AUTO 00000KT 10SM SCT041 SCT100 BKN120 17/17 A3002 RMK AO2 LTG DSNT S AND SW P0033

More Conditions Fewer Conditions

Pressure 30.02 in
Visibility 10.0 miles
Clouds Scattered Clouds 4100 ft
Scattered Clouds 10000 ft
Mostly Cloudy 12000 ft
Dew Point 63 °F
Humidity 100%
Rainfall 0.99 in
Snow Depth Not available.
UV 0 out of 12
Pollen 3.90 out of 12
Air Quality Not available.
Flu Activity Not available.
METAR KSUA 250755Z AUTO 00000KT 10SM SCT041 SCT100 BKN120 17/17 A3002 RMK AO2 LTG DSNT S AND SW P0033

More Conditions Fewer Conditions

Nowcast | as of 12:14 am EST on December 25, 2014

Scattered showers will move northeast at 35 to 40 mph across far southern Brevard...Okeechobee County and the Treasure Coast. Isolated lightning storms will be possible from southern Okeechobee County eastward to Saint Lucie and Martin counties though 3 am. The heavier showers and isolated lightning storms will produce gusty winds up to 35 to 40 mph...and locally heavy rainfall amounts up to a half inch. Cloud to ground lightning strikes will also be a hazard with isolated storms.

×

10-Day Weather Forecast

Almanac

Astronomy

Dec. 25, 2014 Rise Set
Actual Time
Civil Twilight
Nautical Twilight
Astronomical Twilight
Moon
Length of Visible Light
Length of Day
Tomorrow will be .
, % of the Moon is Illuminated

Today's Extremes

State Highs State Lows

Community

WunderPhotos

Upload Photos

1,780,250 photos uploaded!

WunderBlogs® & News

Nearby

Air Quality

  Air Quality AQ Index Pollutant
Not available.

Snow Depth

Station Depth Elevation

Earthquake Activity

City Distance Mag. Time & Date
Minimum magnitude displayed is 2.5.

Coastal Water Temperatures

Place Temperature

Nearby Weather Stations